sensor_id;sensor_type;location;lat;lon;timestamp;pressure;altitude;pressure_sealevel;temperature;humidity
78210;BME280;67485;48.816;9.930;2023-04-25T00:00:52;96186.94;;;6.87;81.07
78210;BME280;67485;48.816;9.930;2023-04-25T00:03:17;96183.59;;;6.84;80.81
78210;BME280;67485;48.816;9.930;2023-04-25T00:05:43;96188.88;;;6.79;81.47
78210;BME280;67485;48.816;9.930;2023-04-25T00:08:10;96187.06;;;6.81;81.26
78210;BME280;67485;48.816;9.930;2023-04-25T00:10:36;96181.81;;;6.84;80.88
78210;BME280;67485;48.816;9.930;2023-04-25T00:13:02;96188.00;;;6.80;81.49
78210;BME280;67485;48.816;9.930;2023-04-25T00:15:28;96184.38;;;6.86;81.91
78210;BME280;67485;48.816;9.930;2023-04-25T00:17:56;96181.75;;;6.87;82.12
78210;BME280;67485;48.816;9.930;2023-04-25T00:20:22;96183.47;;;6.88;81.62
78210;BME280;67485;48.816;9.930;2023-04-25T00:22:49;96189.50;;;6.90;81.47
78210;BME280;67485;48.816;9.930;2023-04-25T00:25:15;96182.47;;;6.94;81.33
78210;BME280;67485;48.816;9.930;2023-04-25T00:27:40;96187.38;;;7.08;81.45
78210;BME280;67485;48.816;9.930;2023-04-25T00:30:07;96181.03;;;7.18;81.20
78210;BME280;67485;48.816;9.930;2023-04-25T00:32:33;96184.41;;;7.23;80.52
78210;BME280;67485;48.816;9.930;2023-04-25T00:34:59;96189.31;;;7.36;80.21
78210;BME280;67485;48.816;9.930;2023-04-25T00:37:25;96185.91;;;7.34;79.63
78210;BME280;67485;48.816;9.930;2023-04-25T00:39:51;96195.59;;;7.27;80.30
78210;BME280;67485;48.816;9.930;2023-04-25T00:42:19;96192.97;;;7.28;80.35
78210;BME280;67485;48.816;9.930;2023-04-25T00:44:46;96180.75;;;7.30;80.13
78210;BME280;67485;48.816;9.930;2023-04-25T00:47:12;96184.97;;;7.36;79.73
78210;BME280;67485;48.816;9.930;2023-04-25T00:49:38;96171.81;;;7.41;80.00
78210;BME280;67485;48.816;9.930;2023-04-25T00:52:04;96184.06;;;7.39;80.03
78210;BME280;67485;48.816;9.930;2023-04-25T00:54:30;96178.69;;;7.43;79.86
78210;BME280;67485;48.816;9.930;2023-04-25T00:56:56;96173.63;;;7.39;79.55
78210;BME280;67485;48.816;9.930;2023-04-25T00:59:22;96171.72;;;7.45;79.44
78210;BME280;67485;48.816;9.930;2023-04-25T01:01:49;96170.03;;;7.43;79.46
78210;BME280;67485;48.816;9.930;2023-04-25T01:04:15;96170.19;;;7.37;79.02
78210;BME280;67485;48.816;9.930;2023-04-25T01:06:40;96168.56;;;7.33;79.36
78210;BME280;67485;48.816;9.930;2023-04-25T01:09:06;96170.47;;;7.24;79.72
78210;BME280;67485;48.816;9.930;2023-04-25T01:11:33;96168.75;;;7.23;79.95
78210;BME280;67485;48.816;9.930;2023-04-25T01:13:58;96161.91;;;7.19;79.75
78210;BME280;67485;48.816;9.930;2023-04-25T01:16:24;96159.13;;;7.27;79.79
78210;BME280;67485;48.816;9.930;2023-04-25T01:18:51;96159.06;;;7.30;79.22
78210;BME280;67485;48.816;9.930;2023-04-25T01:21:16;96170.41;;;7.27;79.26
78210;BME280;67485;48.816;9.930;2023-04-25T01:23:43;96157.31;;;7.30;79.02
78210;BME280;67485;48.816;9.930;2023-04-25T01:26:10;96156.66;;;7.21;79.37
78210;BME280;67485;48.816;9.930;2023-04-25T01:28:37;96149.56;;;7.27;79.30
78210;BME280;67485;48.816;9.930;2023-04-25T01:31:03;96149.63;;;7.24;79.25
78210;BME280;67485;48.816;9.930;2023-04-25T01:33:31;96148.00;;;7.20;79.48
78210;BME280;67485;48.816;9.930;2023-04-25T01:35:56;96151.59;;;7.16;79.92
78210;BME280;67485;48.816;9.930;2023-04-25T01:38:23;96145.59;;;7.12;80.01
78210;BME280;67485;48.816;9.930;2023-04-25T01:40:50;96143.91;;;7.08;80.31
78210;BME280;67485;48.816;9.930;2023-04-25T01:43:18;96147.66;;;6.98;80.19
78210;BME280;67485;48.816;9.930;2023-04-25T01:45:44;96141.59;;;6.97;80.24
78210;BME280;67485;48.816;9.930;2023-04-25T01:48:12;96142.53;;;6.93;81.03
78210;BME280;67485;48.816;9.930;2023-04-25T01:50:39;96134.84;;;6.87;80.62
78210;BME280;67485;48.816;9.930;2023-04-25T01:53:05;96150.44;;;6.90;81.42
78210;BME280;67485;48.816;9.930;2023-04-25T01:55:31;96148.66;;;6.92;80.89
78210;BME280;67485;48.816;9.930;2023-04-25T01:58:08;96143.22;;;7.02;80.79
78210;BME280;67485;48.816;9.930;2023-04-25T02:00:59;96139.78;;;7.00;80.79
78210;BME280;67485;48.816;9.930;2023-04-25T02:03:31;96140.06;;;6.87;81.23
78210;BME280;67485;48.816;9.930;2023-04-25T02:05:58;96142.00;;;6.79;81.08
78210;BME280;67485;48.816;9.930;2023-04-25T02:08:24;96142.00;;;6.79;81.34
78210;BME280;67485;48.816;9.930;2023-04-25T02:10:53;96132.50;;;6.76;81.18
78210;BME280;67485;48.816;9.930;2023-04-25T02:13:19;96138.69;;;6.71;81.84
78210;BME280;67485;48.816;9.930;2023-04-25T02:15:57;96136.09;;;6.71;81.97
78210;BME280;67485;48.816;9.930;2023-04-25T02:18:22;96135.97;;;6.77;82.19
78210;BME280;67485;48.816;9.930;2023-04-25T02:20:48;96134.81;;;6.90;82.15
78210;BME280;67485;48.816;9.930;2023-04-25T02:23:14;96131.41;;;6.87;81.98
78210;BME280;67485;48.816;9.930;2023-04-25T02:25:44;96136.44;;;6.94;81.80
78210;BME280;67485;48.816;9.930;2023-04-25T02:28:10;96136.38;;;6.97;81.36
78210;BME280;67485;48.816;9.930;2023-04-25T02:30:36;96135.47;;;6.98;81.30
78210;BME280;67485;48.816;9.930;2023-04-25T02:33:04;96124.16;;;7.00;81.20
78210;BME280;67485;48.816;9.930;2023-04-25T02:35:30;96126.84;;;6.96;81.53
78210;BME280;67485;48.816;9.930;2023-04-25T02:37:56;96133.09;;;6.89;82.38
78210;BME280;67485;48.816;9.930;2023-04-25T02:40:21;96129.78;;;6.81;83.05
78210;BME280;67485;48.816;9.930;2023-04-25T02:42:47;96118.47;;;6.84;83.04
78210;BME280;67485;48.816;9.930;2023-04-25T02:45:14;96126.25;;;6.85;82.95
78210;BME280;67485;48.816;9.930;2023-04-25T02:47:39;96129.50;;;6.93;82.57
78210;BME280;67485;48.816;9.930;2023-04-25T02:50:05;96123.50;;;6.90;82.69
78210;BME280;67485;48.816;9.930;2023-04-25T02:52:31;96114.91;;;6.88;82.38
78210;BME280;67485;48.816;9.930;2023-04-25T02:55:06;96125.22;;;6.91;82.86
78210;BME280;67485;48.816;9.930;2023-04-25T02:57:34;96121.97;;;6.81;82.79
78210;BME280;67485;48.816;9.930;2023-04-25T03:00:00;96121.22;;;6.76;82.99
78210;BME280;67485;48.816;9.930;2023-04-25T03:02:25;96120.28;;;6.78;82.92
78210;BME280;67485;48.816;9.930;2023-04-25T03:04:51;96122.81;;;6.83;82.82
78210;BME280;67485;48.816;9.930;2023-04-25T03:07:17;96131.38;;;6.88;82.44
78210;BME280;67485;48.816;9.930;2023-04-25T03:09:42;96123.56;;;6.88;82.64
78210;BME280;67485;48.816;9.930;2023-04-25T03:12:08;96110.47;;;6.91;82.40
78210;BME280;67485;48.816;9.930;2023-04-25T03:14:34;96122.53;;;6.95;82.78
78210;BME280;67485;48.816;9.930;2023-04-25T03:17:00;96113.03;;;6.93;82.30
78210;BME280;67485;48.816;9.930;2023-04-25T03:19:26;96112.34;;;6.86;82.11
78210;BME280;67485;48.816;9.930;2023-04-25T03:21:51;96113.13;;;6.88;82.37
78210;BME280;67485;48.816;9.930;2023-04-25T03:24:18;96115.69;;;6.90;82.54
78210;BME280;67485;48.816;9.930;2023-04-25T03:26:44;96108.75;;;6.90;82.50
78210;BME280;67485;48.816;9.930;2023-04-25T03:29:09;96106.97;;;6.92;82.23
78210;BME280;67485;48.816;9.930;2023-04-25T03:31:37;96109.59;;;6.91;82.12
78210;BME280;67485;48.816;9.930;2023-04-25T03:34:02;96109.59;;;6.92;82.00
78210;BME280;67485;48.816;9.930;2023-04-25T03:36:28;96119.19;;;6.90;82.02
78210;BME280;67485;48.816;9.930;2023-04-25T03:38:54;96117.59;;;6.83;82.03
78210;BME280;67485;48.816;9.930;2023-04-25T03:41:20;96120.25;;;6.81;82.36
78210;BME280;67485;48.816;9.930;2023-04-25T03:43:51;96110.94;;;6.70;82.54
78210;BME280;67485;48.816;9.930;2023-04-25T03:46:17;96104.06;;;6.69;82.98
78210;BME280;67485;48.816;9.930;2023-04-25T03:48:42;96116.16;;;6.70;83.49
78210;BME280;67485;48.816;9.930;2023-04-25T03:51:11;96111.69;;;6.76;83.32
78210;BME280;67485;48.816;9.930;2023-04-25T03:53:41;96107.13;;;6.86;83.14
78210;BME280;67485;48.816;9.930;2023-04-25T03:56:18;96118.28;;;6.91;82.64
78210;BME280;67485;48.816;9.930;2023-04-25T03:58:47;96118.16;;;6.96;82.75
78210;BME280;67485;48.816;9.930;2023-04-25T04:01:15;96108.63;;;6.96;82.49
78210;BME280;67485;48.816;9.930;2023-04-25T04:03:41;96121.69;;;6.93;82.75
78210;BME280;67485;48.816;9.930;2023-04-25T04:06:07;96116.47;;;6.95;82.32
78210;BME280;67485;48.816;9.930;2023-04-25T04:08:40;96119.09;;;6.93;82.08
78210;BME280;67485;48.816;9.930;2023-04-25T04:11:06;96124.16;;;7.00;82.15
78210;BME280;67485;48.816;9.930;2023-04-25T04:13:32;96112.00;;;6.98;82.39
78210;BME280;67485;48.816;9.930;2023-04-25T04:15:58;96120.75;;;6.97;82.03
78210;BME280;67485;48.816;9.930;2023-04-25T04:18:23;96125.91;;;6.99;82.30
78210;BME280;67485;48.816;9.930;2023-04-25T04:20:49;96122.56;;;6.94;81.66
78210;BME280;67485;48.816;9.930;2023-04-25T04:23:16;96117.47;;;6.89;81.67
78210;BME280;67485;48.816;9.930;2023-04-25T04:25:42;96115.81;;;6.85;82.38
78210;BME280;67485;48.816;9.930;2023-04-25T04:28:26;96115.19;;;6.75;82.76
78210;BME280;67485;48.816;9.930;2023-04-25T04:30:56;96121.09;;;6.82;83.13
78210;BME280;67485;48.816;9.930;2023-04-25T04:33:24;96119.31;;;6.84;82.95
78210;BME280;67485;48.816;9.930;2023-04-25T04:35:55;96121.09;;;6.82;82.40
78210;BME280;67485;48.816;9.930;2023-04-25T04:38:21;96123.72;;;6.80;82.48
78210;BME280;67485;48.816;9.930;2023-04-25T04:40:47;96121.84;;;6.87;82.65
78210;BME280;67485;48.816;9.930;2023-04-25T04:43:22;96114.91;;;6.88;82.55
78210;BME280;67485;48.816;9.930;2023-04-25T04:46:14;96122.66;;;6.89;82.60
78210;BME280;67485;48.816;9.930;2023-04-25T04:48:53;96124.44;;;6.89;82.64
78210;BME280;67485;48.816;9.930;2023-04-25T04:51:41;96123.50;;;6.91;82.94
78210;BME280;67485;48.816;9.930;2023-04-25T04:54:28;96128.81;;;6.87;82.74
78210;BME280;67485;48.816;9.930;2023-04-25T04:57:09;96129.50;;;6.93;82.96
78210;BME280;67485;48.816;9.930;2023-04-25T04:59:59;96131.03;;;7.04;82.99
78210;BME280;67485;48.816;9.930;2023-04-25T05:02:45;96135.31;;;7.06;82.56
78210;BME280;67485;48.816;9.930;2023-04-25T05:05:28;96130.00;;;7.09;82.46
78210;BME280;67485;48.816;9.930;2023-04-25T05:08:13;96129.94;;;7.12;82.37
78210;BME280;67485;48.816;9.930;2023-04-25T05:11:11;96129.16;;;7.09;82.03
78210;BME280;67485;48.816;9.930;2023-04-25T05:14:03;96127.44;;;7.08;82.39
78210;BME280;67485;48.816;9.930;2023-04-25T05:16:44;96130.88;;;7.10;82.32
78210;BME280;67485;48.816;9.930;2023-04-25T05:19:30;96133.44;;;7.11;81.89
78210;BME280;67485;48.816;9.930;2023-04-25T05:22:28;96126.41;;;7.15;82.44
78210;BME280;67485;48.816;9.930;2023-04-25T05:25:07;96133.09;;;7.25;82.13
78210;BME280;67485;48.816;9.930;2023-04-25T05:27:48;96127.16;;;7.20;82.04
78210;BME280;67485;48.816;9.930;2023-04-25T05:30:40;96142.78;;;7.20;81.86
78210;BME280;67485;48.816;9.930;2023-04-25T05:33:10;96141.31;;;7.10;82.20
78210;BME280;67485;48.816;9.930;2023-04-25T05:35:37;96139.34;;;7.18;82.46
78210;BME280;67485;48.816;9.930;2023-04-25T05:38:03;96139.22;;;7.24;82.26
78210;BME280;67485;48.816;9.930;2023-04-25T05:40:47;96140.94;;;7.25;82.40
78210;BME280;67485;48.816;9.930;2023-04-25T05:43:32;96137.28;;;7.33;82.31
78210;BME280;67485;48.816;9.930;2023-04-25T05:46:08;96139.16;;;7.27;81.90
78210;BME280;67485;48.816;9.930;2023-04-25T05:48:52;96135.81;;;7.21;81.53
78210;BME280;67485;48.816;9.930;2023-04-25T05:51:37;96136.69;;;7.20;82.18
78210;BME280;67485;48.816;9.930;2023-04-25T05:54:17;96135.56;;;7.32;83.05
78210;BME280;67485;48.816;9.930;2023-04-25T05:56:43;96144.03;;;7.40;82.00
78210;BME280;67485;48.816;9.930;2023-04-25T05:59:09;96141.22;;;7.49;81.73
78210;BME280;67485;48.816;9.930;2023-04-25T06:01:35;96147.31;;;7.48;81.70
78210;BME280;67485;48.816;9.930;2023-04-25T06:04:01;96144.13;;;7.37;82.08
78210;BME280;67485;48.816;9.930;2023-04-25T06:06:27;96147.84;;;7.26;82.62
78210;BME280;67485;48.816;9.930;2023-04-25T06:08:53;96151.91;;;7.38;82.43
78210;BME280;67485;48.816;9.930;2023-04-25T06:11:18;96156.75;;;7.52;81.87
78210;BME280;67485;48.816;9.930;2023-04-25T06:13:45;96154.00;;;7.58;81.75
78210;BME280;67485;48.816;9.930;2023-04-25T06:16:12;96154.25;;;7.82;80.94
78210;BME280;67485;48.816;9.930;2023-04-25T06:18:38;96156.81;;;7.85;80.51
78210;BME280;67485;48.816;9.930;2023-04-25T06:21:04;96155.50;;;8.02;79.63
78210;BME280;67485;48.816;9.930;2023-04-25T06:23:30;96154.59;;;8.03;79.65
78210;BME280;67485;48.816;9.930;2023-04-25T06:26:02;96148.88;;;8.21;79.31
78210;BME280;67485;48.816;9.930;2023-04-25T06:28:30;96144.38;;;8.26;79.08
78210;BME280;67485;48.816;9.930;2023-04-25T06:30:55;96148.59;;;8.31;79.30
78210;BME280;67485;48.816;9.930;2023-04-25T06:33:46;96147.00;;;8.26;78.78
78210;BME280;67485;48.816;9.930;2023-04-25T06:36:13;96142.00;;;8.17;78.60
78210;BME280;67485;48.816;9.930;2023-04-25T06:38:40;96137.56;;;8.21;78.61
78210;BME280;67485;48.816;9.930;2023-04-25T06:41:06;96139.38;;;8.19;78.51
78210;BME280;67485;48.816;9.930;2023-04-25T06:43:34;96135.44;;;8.34;78.36
78210;BME280;67485;48.816;9.930;2023-04-25T06:46:09;96142.00;;;8.50;77.84
78210;BME280;67485;48.816;9.930;2023-04-25T06:48:41;96141.25;;;8.45;77.37
78210;BME280;67485;48.816;9.930;2023-04-25T06:51:07;96137.03;;;8.71;77.18
78210;BME280;67485;48.816;9.930;2023-04-25T06:53:34;96145.53;;;9.06;75.73
78210;BME280;67485;48.816;9.930;2023-04-25T06:56:02;96150.88;;;9.30;74.24
78210;BME280;67485;48.816;9.930;2023-04-25T06:58:49;96147.06;;;9.40;73.34
78210;BME280;67485;48.816;9.930;2023-04-25T07:01:27;96150.19;;;9.24;73.98
78210;BME280;67485;48.816;9.930;2023-04-25T07:03:53;96142.50;;;8.91;74.83
78210;BME280;67485;48.816;9.930;2023-04-25T07:06:19;96147.69;;;8.93;73.63
78210;BME280;67485;48.816;9.930;2023-04-25T07:08:45;96145.13;;;8.91;73.84
78210;BME280;67485;48.816;9.930;2023-04-25T07:11:11;96147.44;;;9.01;73.17
78210;BME280;67485;48.816;9.930;2023-04-25T07:13:37;96147.25;;;9.07;72.94
78210;BME280;67485;48.816;9.930;2023-04-25T07:16:03;96141.72;;;9.16;72.05
78210;BME280;67485;48.816;9.930;2023-04-25T07:18:30;96142.69;;;9.40;72.17
78210;BME280;67485;48.816;9.930;2023-04-25T07:20:56;96142.94;;;9.60;70.68
78210;BME280;67485;48.816;9.930;2023-04-25T07:23:22;96142.94;;;10.35;68.53
78210;BME280;67485;48.816;9.930;2023-04-25T07:25:48;96147.25;;;10.62;67.30
78210;BME280;67485;48.816;9.930;2023-04-25T07:28:19;96145.06;;;10.49;66.80
78210;BME280;67485;48.816;9.930;2023-04-25T07:30:46;96137.91;;;10.54;67.47
78210;BME280;67485;48.816;9.930;2023-04-25T07:33:12;96147.66;;;10.26;67.06
78210;BME280;67485;48.816;9.930;2023-04-25T07:35:38;96144.19;;;10.00;68.05
78210;BME280;67485;48.816;9.930;2023-04-25T07:38:05;96144.44;;;10.17;68.22
78210;BME280;67485;48.816;9.930;2023-04-25T07:40:32;96146.72;;;10.03;68.78
78210;BME280;67485;48.816;9.930;2023-04-25T07:43:04;96146.28;;;10.15;69.18
78210;BME280;67485;48.816;9.930;2023-04-25T07:45:43;96145.53;;;10.12;68.21
78210;BME280;67485;48.816;9.930;2023-04-25T07:48:09;96142.09;;;10.10;67.83
78210;BME280;67485;48.816;9.930;2023-04-25T07:50:37;96150.22;;;10.02;67.10
78210;BME280;67485;48.816;9.930;2023-04-25T07:53:03;96148.94;;;9.88;67.30
78210;BME280;67485;48.816;9.930;2023-04-25T07:55:37;96162.16;;;9.84;66.99
78210;BME280;67485;48.816;9.930;2023-04-25T07:58:14;96156.09;;;9.83;65.84
78210;BME280;67485;48.816;9.930;2023-04-25T08:00:43;96157.47;;;9.94;66.79
78210;BME280;67485;48.816;9.930;2023-04-25T08:03:26;96163.25;;;9.78;67.39
78210;BME280;67485;48.816;9.930;2023-04-25T08:05:53;96161.66;;;9.47;67.76
78210;BME280;67485;48.816;9.930;2023-04-25T08:08:19;96164.72;;;9.60;68.50
78210;BME280;67485;48.816;9.930;2023-04-25T08:10:45;96163.34;;;9.75;67.82
78210;BME280;67485;48.816;9.930;2023-04-25T08:13:14;96164.63;;;9.88;66.87
78210;BME280;67485;48.816;9.930;2023-04-25T08:15:40;96176.69;;;9.67;65.97
78210;BME280;67485;48.816;9.930;2023-04-25T08:18:06;96175.34;;;9.55;67.72
78210;BME280;67485;48.816;9.930;2023-04-25T08:20:32;96180.16;;;9.41;68.88
78210;BME280;67485;48.816;9.930;2023-04-25T08:23:00;96183.97;;;9.02;69.34
78210;BME280;67485;48.816;9.930;2023-04-25T08:25:33;96183.97;;;9.02;68.79
78210;BME280;67485;48.816;9.930;2023-04-25T08:27:59;96189.97;;;9.06;68.89
78210;BME280;67485;48.816;9.930;2023-04-25T08:30:29;96200.06;;;8.88;69.74
78210;BME280;67485;48.816;9.930;2023-04-25T08:32:55;96201.84;;;9.16;69.89
78210;BME280;67485;48.816;9.930;2023-04-25T08:35:40;96199.84;;;9.24;70.11
78210;BME280;67485;48.816;9.930;2023-04-25T08:38:06;96202.03;;;9.38;70.40
78210;BME280;67485;48.816;9.930;2023-04-25T08:40:35;96205.88;;;9.82;69.64
78210;BME280;67485;48.816;9.930;2023-04-25T08:43:07;96210.56;;;9.97;66.97
78210;BME280;67485;48.816;9.930;2023-04-25T08:45:42;96216.97;;;10.15;66.66
78210;BME280;67485;48.816;9.930;2023-04-25T08:48:13;96213.63;;;10.10;67.27
78210;BME280;67485;48.816;9.930;2023-04-25T08:50:51;96219.66;;;10.12;67.12
78210;BME280;67485;48.816;9.930;2023-04-25T08:53:28;96223.84;;;9.66;67.61
78210;BME280;67485;48.816;9.930;2023-04-25T08:55:55;96227.22;;;9.69;67.95
78210;BME280;67485;48.816;9.930;2023-04-25T08:58:21;96222.38;;;9.29;70.42
78210;BME280;67485;48.816;9.930;2023-04-25T09:00:47;96238.31;;;9.49;70.54
78210;BME280;67485;48.816;9.930;2023-04-25T09:03:15;96239.59;;;9.36;71.56
78210;BME280;67485;48.816;9.930;2023-04-25T09:05:41;96235.56;;;9.25;72.11
78210;BME280;67485;48.816;9.930;2023-04-25T09:08:08;96248.50;;;9.30;72.95
78210;BME280;67485;48.816;9.930;2023-04-25T09:10:34;96245.22;;;9.52;72.09
78210;BME280;67485;48.816;9.930;2023-04-25T09:13:12;96246.06;;;9.52;71.04
78210;BME280;67485;48.816;9.930;2023-04-25T09:16:00;96249.22;;;9.62;70.83
78210;BME280;67485;48.816;9.930;2023-04-25T09:18:43;96262.72;;;9.20;71.79
78210;BME280;67485;48.816;9.930;2023-04-25T09:21:11;96264.03;;;9.05;72.47
78210;BME280;67485;48.816;9.930;2023-04-25T09:23:43;96262.72;;;9.21;71.99
78210;BME280;67485;48.816;9.930;2023-04-25T09:26:10;96268.19;;;9.12;71.79
78210;BME280;67485;48.816;9.930;2023-04-25T09:28:39;96274.22;;;8.84;72.74
78210;BME280;67485;48.816;9.930;2023-04-25T09:31:05;96268.84;;;8.90;73.37
78210;BME280;67485;48.816;9.930;2023-04-25T09:33:37;96281.13;;;9.17;72.85
78210;BME280;67485;48.816;9.930;2023-04-25T09:36:07;96284.75;;;9.13;73.19
78210;BME280;67485;48.816;9.930;2023-04-25T09:39:12;96282.25;;;9.08;73.15
78210;BME280;67485;48.816;9.930;2023-04-25T09:41:45;96277.44;;;9.24;72.26
78210;BME280;67485;48.816;9.930;2023-04-25T09:44:12;96280.66;;;9.32;71.80
78210;BME280;67485;48.816;9.930;2023-04-25T09:46:40;96284.03;;;9.36;72.42
78210;BME280;67485;48.816;9.930;2023-04-25T09:49:14;96284.94;;;9.35;72.88
78210;BME280;67485;48.816;9.930;2023-04-25T09:52:00;96281.44;;;9.36;73.58
78210;BME280;67485;48.816;9.930;2023-04-25T09:54:32;96284.38;;;9.53;73.60
78210;BME280;67485;48.816;9.930;2023-04-25T09:57:19;96278.00;;;9.90;71.37
78210;BME280;67485;48.816;9.930;2023-04-25T09:59:47;96288.09;;;10.01;69.70
78210;BME280;67485;48.816;9.930;2023-04-25T10:02:20;96284.09;;;10.16;67.75
78210;BME280;67485;48.816;9.930;2023-04-25T10:04:50;96289.34;;;10.43;67.10
78210;BME280;67485;48.816;9.930;2023-04-25T10:07:23;96291.19;;;10.14;64.67
78210;BME280;67485;48.816;9.930;2023-04-25T10:10:01;96285.66;;;9.97;64.99
78210;BME280;67485;48.816;9.930;2023-04-25T10:12:29;96288.56;;;10.14;66.16
78210;BME280;67485;48.816;9.930;2023-04-25T10:14:59;96291.47;;;10.32;65.54
78210;BME280;67485;48.816;9.930;2023-04-25T10:17:28;96300.88;;;10.63;65.00
78210;BME280;67485;48.816;9.930;2023-04-25T10:19:54;96290.50;;;10.85;64.91
78210;BME280;67485;48.816;9.930;2023-04-25T10:22:29;96288.75;;;10.85;63.28
78210;BME280;67485;48.816;9.930;2023-04-25T10:24:56;96294.19;;;11.05;61.89
78210;BME280;67485;48.816;9.930;2023-04-25T10:27:22;96287.59;;;11.16;60.60
78210;BME280;67485;48.816;9.930;2023-04-25T10:30:08;96294.09;;;11.06;59.92
78210;BME280;67485;48.816;9.930;2023-04-25T10:32:37;96293.44;;;11.25;61.64
78210;BME280;67485;48.816;9.930;2023-04-25T10:35:45;96287.44;;;10.97;62.32
78210;BME280;67485;48.816;9.930;2023-04-25T10:38:11;96290.81;;;10.52;62.58
78210;BME280;67485;48.816;9.930;2023-04-25T10:40:39;96287.84;;;10.09;63.09
78210;BME280;67485;48.816;9.930;2023-04-25T10:43:39;96291.81;;;9.39;66.43
78210;BME280;67485;48.816;9.930;2023-04-25T10:53:57;96306.00;;;8.69;71.21
78210;BME280;67485;48.816;9.930;2023-04-25T10:56:31;96318.41;;;8.60;74.17
78210;BME280;67485;48.816;9.930;2023-04-25T10:59:14;96315.16;;;8.84;74.65
78210;BME280;67485;48.816;9.930;2023-04-25T11:01:42;96330.09;;;8.80;74.22
78210;BME280;67485;48.816;9.930;2023-04-25T11:07:18;96319.94;;;9.31;75.49
78210;BME280;67485;48.816;9.930;2023-04-25T11:09:49;96326.22;;;9.53;75.34
78210;BME280;67485;48.816;9.930;2023-04-25T11:12:15;96327.47;;;9.70;75.50
78210;BME280;67485;48.816;9.930;2023-04-25T11:14:41;96328.16;;;9.77;74.66
78210;BME280;67485;48.816;9.930;2023-04-25T11:17:07;96321.78;;;9.85;74.88
78210;BME280;67485;48.816;9.930;2023-04-25T11:19:33;96331.38;;;9.85;76.01
78210;BME280;67485;48.816;9.930;2023-04-25T11:22:00;96330.94;;;9.99;74.78
78210;BME280;67485;48.816;9.930;2023-04-25T11:24:33;96328.53;;;10.19;74.97
78210;BME280;67485;48.816;9.930;2023-04-25T11:27:01;96331.41;;;10.12;74.49
78210;BME280;67485;48.816;9.930;2023-04-25T11:29:31;96341.66;;;9.91;75.04
78210;BME280;67485;48.816;9.930;2023-04-25T11:31:57;96340.84;;;9.89;74.85
78210;BME280;67485;48.816;9.930;2023-04-25T11:34:27;96339.59;;;10.01;75.13
78210;BME280;67485;48.816;9.930;2023-04-25T11:36:56;96347.44;;;9.74;75.11
78210;BME280;67485;48.816;9.930;2023-04-25T11:39:24;96344.00;;;9.42;76.06
78210;BME280;67485;48.816;9.930;2023-04-25T11:41:50;96349.19;;;9.44;76.97
78210;BME280;67485;48.816;9.930;2023-04-25T11:44:17;96352.31;;;9.56;76.42
78210;BME280;67485;48.816;9.930;2023-04-25T11:46:43;96366.81;;;9.37;75.94
78210;BME280;67485;48.816;9.930;2023-04-25T11:49:09;96367.84;;;9.00;77.52
78210;BME280;67485;48.816;9.930;2023-04-25T11:51:53;96374.19;;;8.91;77.04
78210;BME280;67485;48.816;9.930;2023-04-25T11:54:19;96384.13;;;8.78;77.61
78210;BME280;67485;48.816;9.930;2023-04-25T11:56:45;96388.25;;;8.52;79.40
78210;BME280;67485;48.816;9.930;2023-04-25T11:59:11;96393.91;;;8.34;79.46
78210;BME280;67485;48.816;9.930;2023-04-25T12:01:40;96401.81;;;8.31;80.39
78210;BME280;67485;48.816;9.930;2023-04-25T12:04:11;96407.53;;;8.10;81.07
78210;BME280;67485;48.816;9.930;2023-04-25T12:06:37;96408.59;;;8.02;81.45
78210;BME280;67485;48.816;9.930;2023-04-25T12:09:08;96410.38;;;8.00;81.16
78210;BME280;67485;48.816;9.930;2023-04-25T12:11:56;96414.97;;;7.88;81.91
78210;BME280;67485;48.816;9.930;2023-04-25T12:14:28;96422.75;;;7.91;81.85
78210;BME280;67485;48.816;9.930;2023-04-25T12:16:56;96425.00;;;7.68;81.80
78210;BME280;67485;48.816;9.930;2023-04-25T12:19:23;96423.47;;;7.57;82.62
78210;BME280;67485;48.816;9.930;2023-04-25T12:21:49;96421.28;;;7.37;83.33
78210;BME280;67485;48.816;9.930;2023-04-25T12:24:17;96427.59;;;7.25;84.80
78210;BME280;67485;48.816;9.930;2023-04-25T12:29:22;96422.69;;;7.10;84.89
78210;BME280;67485;48.816;9.930;2023-04-25T12:31:48;96418.22;;;7.17;85.22
78210;BME280;67485;48.816;9.930;2023-04-25T12:34:14;96429.31;;;7.26;85.30
78210;BME280;67485;48.816;9.930;2023-04-25T12:36:40;96424.59;;;7.45;84.35
78210;BME280;67485;48.816;9.930;2023-04-25T12:39:06;96432.06;;;7.62;83.93
78210;BME280;67485;48.816;9.930;2023-04-25T12:41:32;96423.34;;;7.63;82.92
78210;BME280;67485;48.816;9.930;2023-04-25T12:43:58;96431.88;;;7.72;82.16
78210;BME280;67485;48.816;9.930;2023-04-25T12:46:24;96425.75;;;7.73;81.45
78210;BME280;67485;48.816;9.930;2023-04-25T12:48:49;96433.47;;;7.79;80.84
78210;BME280;67485;48.816;9.930;2023-04-25T12:51:15;96434.00;;;7.93;80.78
78210;BME280;67485;48.816;9.930;2023-04-25T12:53:41;96439.19;;;7.95;80.73
78210;BME280;67485;48.816;9.930;2023-04-25T12:56:08;96431.94;;;8.08;79.83
78210;BME280;67485;48.816;9.930;2023-04-25T12:58:33;96433.75;;;8.04;79.17
78210;BME280;67485;48.816;9.930;2023-04-25T13:00:59;96433.13;;;8.32;79.02
78210;BME280;67485;48.816;9.930;2023-04-25T13:03:25;96432.81;;;8.44;78.13
78210;BME280;67485;48.816;9.930;2023-04-25T13:05:51;96438.09;;;8.79;77.22
78210;BME280;67485;48.816;9.930;2023-04-25T13:08:20;96439.66;;;8.86;76.50
78210;BME280;67485;48.816;9.930;2023-04-25T13:10:49;96447.78;;;9.08;75.98
78210;BME280;67485;48.816;9.930;2023-04-25T13:13:14;96444.84;;;9.52;75.81
78210;BME280;67485;48.816;9.930;2023-04-25T13:15:41;96447.94;;;9.67;75.16
78210;BME280;67485;48.816;9.930;2023-04-25T13:18:07;96445.22;;;9.70;73.90
78210;BME280;67485;48.816;9.930;2023-04-25T13:20:33;96445.13;;;10.03;73.72
78210;BME280;67485;48.816;9.930;2023-04-25T13:22:59;96450.69;;;10.20;73.26
78210;BME280;67485;48.816;9.930;2023-04-25T13:25:25;96452.38;;;10.21;73.84
78210;BME280;67485;48.816;9.930;2023-04-25T13:27:50;96446.88;;;9.72;73.16
78210;BME280;67485;48.816;9.930;2023-04-25T13:30:16;96462.19;;;9.55;74.25
78210;BME280;67485;48.816;9.930;2023-04-25T13:32:42;96461.19;;;9.28;74.35
78210;BME280;67485;48.816;9.930;2023-04-25T13:35:11;96462.91;;;9.30;75.80
78210;BME280;67485;48.816;9.930;2023-04-25T13:37:37;96465.38;;;9.35;76.22